Tortugas — 9HA4366 — position and weather

sailwx.info

Track history (hours):
 
Tides and Currents Weather Stations Pressure Air Temp Water Temp Dewpoint Dewpoint Depression Visibility Wind Speed Wind Dir Waves Ship Positions

Tortugas

Last reported at 2017-Oct-16 13:52 UTC. Time now 2017-Oct-22 19:07 UTC.
Position N 36°49' W 075°47'.

Length 199 m; draft 9.7 m.

Type: Cargo ship. MMSI: 249757000.

Date/timePositionNaut miles runAvg speedWind from/ knotsBaromVisibWave heightAir tempDewpointWater temp
2017-Oct-16 13:52N 36°49' W 075°47'617.0
2017-Oct-16 13:30N 36°52' W 075°53'815.2
2017-Oct-16 13:00N 36°58' W 075°60'815.3
2017-Oct-16 12:30N 37°04' W 076°06'5316.0
2017-Oct-16 09:10N 37°57' W 076°10'2518.2
2017-Oct-16 07:49N 38°21' W 076°19'618.1
2017-Oct-16 07:29N 38°26' W 076°22'917.6
2017-Oct-16 07:00N 38°34' W 076°26'817.1
2017-Oct-16 06:30N 38°43' W 076°26'816.9
2017-Oct-16 06:00N 38°51' W 076°24'815.7
2017-Oct-16 05:30N 38°59' W 076°23'713.1
2017-Oct-16 05:01N 39°05' W 076°24'612.5
2017-Oct-16 04:31N 39°11' W 076°27'5 9.8
2017-Oct-16 04:00N 39°14' W 076°32'2 4.6
2017-Oct-16 03:30N 39°15' W 076°35'0 0.1
2017-Oct-16 02:58N 39°15' W 076°35'0 0.0
2017-Oct-16 02:28N 39°15' W 076°35'0 0.0
2017-Oct-16 01:58N 39°15' W 076°35'0 0.0
2017-Oct-16 01:28N 39°15' W 076°35'0 0.0
2017-Oct-16 00:58N 39°15' W 076°35'0 0.0
2017-Oct-16 00:28N 39°15' W 076°35'0 0.0
2017-Oct-15 23:58N 39°15' W 076°35'0 0.0
2017-Oct-15 23:28N 39°15' W 076°35'0 0.0
2017-Oct-15 22:58N 39°15' W 076°35'0 0.0
2017-Oct-15 22:28N 39°15' W 076°35'0 0.6
2017-Oct-15 21:58N 39°15' W 076°35'2 3.7
2017-Oct-15 21:30N 39°15' W 076°33'0 0.7
2017-Oct-15 21:00N 39°15' W 076°32'0 0.0
2017-Oct-15 20:30N 39°15' W 076°32'0 0.0
2017-Oct-15 20:00N 39°15' W 076°32'0 0.0
2017-Oct-15 19:30N 39°15' W 076°32'0 0.0
2017-Oct-15 18:54N 39°15' W 076°32'0 0.0
2017-Oct-15 18:30N 39°15' W 076°32'0 0.0
2017-Oct-15 18:00N 39°15' W 076°32'0 0.0
2017-Oct-15 17:30N 39°15' W 076°32'0 0.0
2017-Oct-15 17:00N 39°15' W 076°32'0 0.0
2017-Oct-15 16:30N 39°15' W 076°32'0 0.0
2017-Oct-15 16:00N 39°15' W 076°32'0 0.0
2017-Oct-15 15:21N 39°15' W 076°32'0 0.0
2017-Oct-15 14:57N 39°15' W 076°32'0 0.0
2017-Oct-15 14:00N 39°15' W 076°32'0 0.0
2017-Oct-15 13:30N 39°15' W 076°32'0 0.0
2017-Oct-15 13:00N 39°15' W 076°32'0 0.0
2017-Oct-15 12:30N 39°15' W 076°32'0 0.0
2017-Oct-15 12:00N 39°15' W 076°32'0 0.0
2017-Oct-15 11:27N 39°15' W 076°32'0 0.0
2017-Oct-15 11:00N 39°15' W 076°32'0 0.0
2017-Oct-15 10:21N 39°15' W 076°32'0 0.0
2017-Oct-15 10:00N 39°15' W 076°32'0 0.0
2017-Oct-15 09:30N 39°15' W 076°32'0 0.0
2017-Oct-15 09:00N 39°15' W 076°32'1 2.1
2017-Oct-15 08:30N 39°14' W 076°32'4 7.7
2017-Oct-15 08:01N 39°11' W 076°28'612.9
2017-Oct-15 07:30N 39°06' W 076°24'816.0
2017-Oct-15 07:00N 38°58' W 076°23'917.7
2017-Oct-15 06:30N 38°49' W 076°25'917.2
2017-Oct-15 06:01N 38°41' W 076°25'816.9
2017-Oct-15 05:30N 38°32' W 076°25'917.4
2017-Oct-15 05:00N 38°24' W 076°21'917.3
2017-Oct-15 04:28N 38°16' W 076°16'916.9
2017-Oct-15 03:57N 38°07' W 076°13'716.9
2017-Oct-15 03:30N 37°60' W 076°12'816.6
2017-Oct-15 02:59N 37°52' W 076°09'916.8
2017-Oct-15 02:28N 37°43' W 076°11'716.2
2017-Oct-15 02:01N 37°37' W 076°06'815.1
2017-Oct-15 01:30N 37°29' W 076°03'816.0
2017-Oct-15 01:00N 37°21' W 076°05'916.5
2017-Oct-15 00:28N 37°13' W 076°09'715.4
2017-Oct-15 00:00N 37°06' W 076°07'816.1
2017-Oct-14 23:30N 36°60' W 076°01'612.7
2017-Oct-14 23:00N 36°55' W 075°55'4 8.6
2017-Oct-14 22:30N 36°53' W 075°51'6 9.7
2017-Oct-14 21:53N 36°50' W 075°45'3 9.0
2017-Oct-14 21:30N 36°49' W 075°41'912.9
2017-Oct-14 20:50N 36°49' W 075°30'2815.5
2017-Oct-14 19:01N 37°05' W 075°00'016.5
2017-Oct-14 19:00N 37°05' W 075°00'  
2017-Oct-06 17:23N 50°34' W 012°31'  
Track history (hours):
 
Tides and Currents Weather Stations Pressure Air Temp Water Temp Dewpoint Dewpoint Depression Visibility Wind Speed Wind Dir Waves Ship Positions

Tortugas

Last reported at 2017-Oct-16 13:52 UTC. Time now 2017-Oct-22 19:07 UTC.
Position N 36°49' W 075°47'.

Length 199 m; draft 9.7 m.

Type: Cargo ship. MMSI: 249757000.

Date/timePositionNaut miles runAvg speedWind from/ knotsBaromVisibWave heightAir tempDewpointWater temp
2017-Oct-16 13:52N 36°49' W 075°47'617.0
2017-Oct-16 13:30N 36°52' W 075°53'815.2
2017-Oct-16 13:00N 36°58' W 075°60'815.3
2017-Oct-16 12:30N 37°04' W 076°06'5316.0
2017-Oct-16 09:10N 37°57' W 076°10'2518.2
2017-Oct-16 07:49N 38°21' W 076°19'618.1
2017-Oct-16 07:29N 38°26' W 076°22'917.6
2017-Oct-16 07:00N 38°34' W 076°26'817.1
2017-Oct-16 06:30N 38°43' W 076°26'816.9
2017-Oct-16 06:00N 38°51' W 076°24'815.7
2017-Oct-16 05:30N 38°59' W 076°23'713.1
2017-Oct-16 05:01N 39°05' W 076°24'612.5
2017-Oct-16 04:31N 39°11' W 076°27'5 9.8
2017-Oct-16 04:00N 39°14' W 076°32'2 4.6
2017-Oct-16 03:30N 39°15' W 076°35'0 0.1
2017-Oct-16 02:58N 39°15' W 076°35'0 0.0
2017-Oct-16 02:28N 39°15' W 076°35'0 0.0
2017-Oct-16 01:58N 39°15' W 076°35'0 0.0
2017-Oct-16 01:28N 39°15' W 076°35'0 0.0
2017-Oct-16 00:58N 39°15' W 076°35'0 0.0
2017-Oct-16 00:28N 39°15' W 076°35'0 0.0
2017-Oct-15 23:58N 39°15' W 076°35'0 0.0
2017-Oct-15 23:28N 39°15' W 076°35'0 0.0
2017-Oct-15 22:58N 39°15' W 076°35'0 0.0
2017-Oct-15 22:28N 39°15' W 076°35'0 0.6
2017-Oct-15 21:58N 39°15' W 076°35'2 3.7
2017-Oct-15 21:30N 39°15' W 076°33'0 0.7
2017-Oct-15 21:00N 39°15' W 076°32'0 0.0
2017-Oct-15 20:30N 39°15' W 076°32'0 0.0
2017-Oct-15 20:00N 39°15' W 076°32'0 0.0
2017-Oct-15 19:30N 39°15' W 076°32'0 0.0
2017-Oct-15 18:54N 39°15' W 076°32'0 0.0
2017-Oct-15 18:30N 39°15' W 076°32'0 0.0
2017-Oct-15 18:00N 39°15' W 076°32'0 0.0
2017-Oct-15 17:30N 39°15' W 076°32'0 0.0
2017-Oct-15 17:00N 39°15' W 076°32'0 0.0
2017-Oct-15 16:30N 39°15' W 076°32'0 0.0
2017-Oct-15 16:00N 39°15' W 076°32'0 0.0
2017-Oct-15 15:21N 39°15' W 076°32'0 0.0
2017-Oct-15 14:57N 39°15' W 076°32'0 0.0
2017-Oct-15 14:00N 39°15' W 076°32'0 0.0
2017-Oct-15 13:30N 39°15' W 076°32'0 0.0
2017-Oct-15 13:00N 39°15' W 076°32'0 0.0
2017-Oct-15 12:30N 39°15' W 076°32'0 0.0
2017-Oct-15 12:00N 39°15' W 076°32'0 0.0
2017-Oct-15 11:27N 39°15' W 076°32'0 0.0
2017-Oct-15 11:00N 39°15' W 076°32'0 0.0
2017-Oct-15 10:21N 39°15' W 076°32'0 0.0
2017-Oct-15 10:00N 39°15' W 076°32'0 0.0
2017-Oct-15 09:30N 39°15' W 076°32'0 0.0
2017-Oct-15 09:00N 39°15' W 076°32'1 2.1
2017-Oct-15 08:30N 39°14' W 076°32'4 7.7
2017-Oct-15 08:01N 39°11' W 076°28'612.9
2017-Oct-15 07:30N 39°06' W 076°24'816.0
2017-Oct-15 07:00N 38°58' W 076°23'917.7
2017-Oct-15 06:30N 38°49' W 076°25'917.2
2017-Oct-15 06:01N 38°41' W 076°25'816.9
2017-Oct-15 05:30N 38°32' W 076°25'917.4
2017-Oct-15 05:00N 38°24' W 076°21'917.3
2017-Oct-15 04:28N 38°16' W 076°16'916.9
2017-Oct-15 03:57N 38°07' W 076°13'716.9
2017-Oct-15 03:30N 37°60' W 076°12'816.6
2017-Oct-15 02:59N 37°52' W 076°09'916.8
2017-Oct-15 02:28N 37°43' W 076°11'716.2
2017-Oct-15 02:01N 37°37' W 076°06'815.1
2017-Oct-15 01:30N 37°29' W 076°03'816.0
2017-Oct-15 01:00N 37°21' W 076°05'916.5
2017-Oct-15 00:28N 37°13' W 076°09'715.4
2017-Oct-15 00:00N 37°06' W 076°07'816.1
2017-Oct-14 23:30N 36°60' W 076°01'612.7
2017-Oct-14 23:00N 36°55' W 075°55'4 8.6
2017-Oct-14 22:30N 36°53' W 075°51'6 9.7
2017-Oct-14 21:53N 36°50' W 075°45'3 9.0
2017-Oct-14 21:30N 36°49' W 075°41'912.9
2017-Oct-14 20:50N 36°49' W 075°30'2815.5
2017-Oct-14 19:01N 37°05' W 075°00'016.5
2017-Oct-14 19:00N 37°05' W 075°00'  
2017-Oct-06 17:23N 50°34' W 012°31'  

Dump ship's entire track history